createdAt,value
2018-07-09T00:01:24.431Z,50.70
2018-07-09T00:03:53.038Z,50.80
2018-07-09T00:06:21.768Z,50.90
2018-07-09T00:08:50.283Z,51.20
2018-07-09T00:11:18.898Z,51.40
2018-07-09T00:13:47.880Z,51.40
2018-07-09T00:16:16.576Z,51.50
2018-07-09T00:18:45.470Z,51.50
2018-07-09T00:21:14.728Z,51.60
2018-07-09T00:23:43.353Z,51.60
2018-07-09T00:26:11.926Z,51.80
2018-07-09T00:28:40.485Z,51.80
2018-07-09T00:33:37.217Z,52.70
2018-07-09T00:36:05.838Z,52.10
2018-07-09T00:38:34.447Z,52.20
2018-07-09T00:41:03.107Z,52.40
2018-07-09T00:43:31.605Z,52.40
2018-07-09T00:46:00.283Z,52.50
2018-07-09T00:48:28.966Z,52.20
2018-07-09T00:50:57.541Z,52.00
2018-07-09T00:53:26.565Z,52.00
2018-07-09T00:55:55.148Z,52.10
2018-07-09T00:58:23.948Z,52.30
2018-07-09T01:00:52.524Z,52.10
2018-07-09T01:03:21.231Z,52.10
2018-07-09T01:05:50.578Z,52.10
2018-07-09T01:08:19.530Z,52.30
2018-07-09T01:10:59.196Z,52.10
2018-07-09T01:13:43.352Z,52.20
2018-07-09T01:16:12.454Z,52.50
2018-07-09T01:18:41.463Z,52.60
2018-07-09T01:21:12.519Z,52.80
2018-07-09T01:23:41.295Z,53.00
2018-07-09T01:26:10.582Z,53.00
2018-07-09T01:28:40.748Z,53.20
2018-07-09T01:31:09.315Z,53.20
2018-07-09T01:33:37.920Z,53.20
2018-07-09T01:36:06.694Z,53.40
2018-07-09T01:38:35.411Z,53.40
2018-07-09T01:41:18.280Z,53.50
2018-07-09T01:43:46.839Z,53.70
2018-07-09T01:48:43.549Z,53.90
2018-07-09T01:51:12.191Z,53.90
2018-07-09T01:53:40.743Z,53.80
2018-07-09T01:56:09.634Z,53.70
2018-07-09T01:58:38.201Z,53.70
2018-07-09T02:01:06.932Z,53.80
2018-07-09T02:03:35.513Z,54.00
2018-07-09T02:06:04.107Z,54.20
2018-07-09T02:08:32.924Z,54.10
2018-07-09T02:11:01.550Z,54.00
2018-07-09T02:13:30.092Z,54.10
2018-07-09T02:15:59.490Z,54.50
2018-07-09T02:18:28.032Z,54.50
2018-07-09T02:20:56.568Z,54.70
2018-07-09T02:23:25.869Z,54.90
2018-07-09T02:25:54.876Z,54.70
2018-07-09T02:28:24.224Z,54.80
2018-07-09T02:30:53.149Z,54.70
2018-07-09T02:33:21.697Z,54.70
2018-07-09T02:35:50.280Z,54.80
2018-07-09T02:38:19.532Z,54.80
2018-07-09T02:40:48.082Z,55.00
2018-07-09T02:43:16.663Z,55.00
2018-07-09T02:45:45.787Z,55.30
2018-07-09T02:48:14.344Z,55.10
2018-07-09T02:50:42.977Z,55.20
2018-07-09T02:53:11.551Z,55.30
2018-07-09T02:55:40.123Z,55.40
2018-07-09T02:58:09.928Z,55.30
2018-07-09T03:00:38.592Z,55.40
2018-07-09T03:03:07.703Z,55.30
2018-07-09T03:05:36.655Z,55.30
2018-07-09T03:08:05.954Z,55.40
2018-07-09T03:10:34.532Z,55.30
2018-07-09T03:13:03.055Z,55.30
2018-07-09T03:15:31.645Z,55.40
2018-07-09T03:18:00.236Z,55.20
2018-07-09T03:20:28.793Z,55.20
2018-07-09T03:22:57.363Z,55.40
2018-07-09T03:25:26.074Z,55.30
2018-07-09T03:27:54.682Z,55.10
2018-07-09T03:30:23.526Z,55.30
2018-07-09T03:32:52.137Z,55.50
2018-07-09T03:35:20.900Z,55.40
2018-07-09T03:37:49.756Z,55.20
2018-07-09T03:45:15.730Z,55.90
2018-07-09T03:47:44.793Z,56.20
2018-07-09T03:50:14.196Z,56.60
2018-07-09T03:52:42.798Z,56.70
2018-07-09T03:55:11.604Z,56.70
2018-07-09T03:57:40.219Z,56.50
2018-07-09T04:00:09.148Z,56.20
2018-07-09T04:02:38.296Z,55.90
2018-07-09T04:05:07.530Z,56.00
2018-07-09T04:07:36.387Z,56.10
2018-07-09T04:10:05.689Z,56.10
2018-07-09T04:12:34.826Z,55.90
2018-07-09T04:15:03.578Z,55.90
2018-07-09T04:17:32.244Z,56.10
2018-07-09T04:20:01.270Z,56.00
2018-07-09T04:22:29.781Z,55.90
2018-07-09T04:24:58.494Z,56.00
2018-07-09T04:27:27.276Z,55.90
2018-07-09T04:29:56.563Z,56.00
2018-07-09T04:32:25.215Z,56.00
2018-07-09T04:34:54.090Z,56.00
2018-07-09T04:37:22.768Z,56.00
2018-07-09T04:39:51.470Z,56.10
2018-07-09T04:42:20.069Z,56.20
2018-07-09T04:44:49.192Z,56.30
2018-07-09T04:47:18.162Z,56.30
2018-07-09T04:49:46.751Z,56.40
2018-07-09T04:52:15.351Z,56.30
2018-07-09T04:54:44.225Z,56.30
2018-07-09T04:57:12.772Z,56.40
2018-07-09T04:59:41.430Z,56.20
2018-07-09T05:02:10.041Z,56.00
2018-07-09T05:04:38.618Z,55.60
2018-07-09T05:07:07.187Z,55.60
2018-07-09T05:09:36.082Z,55.50
2018-07-09T05:12:04.826Z,55.00
2018-07-09T05:14:33.467Z,54.70
2018-07-09T05:17:02.092Z,54.10
2018-07-09T05:19:30.807Z,54.10
2018-07-09T05:21:59.520Z,54.40
2018-07-09T05:24:28.217Z,54.40
2018-07-09T05:29:25.367Z,53.80
2018-07-09T05:31:53.988Z,53.50
2018-07-09T05:34:22.586Z,53.30
2018-07-09T05:36:52.013Z,53.20
2018-07-09T05:39:21.392Z,53.10
2018-07-09T05:41:50.498Z,53.20
2018-07-09T05:44:19.143Z,53.00
2018-07-09T05:46:47.946Z,52.40
2018-07-09T05:49:16.635Z,51.90
2018-07-09T05:51:45.382Z,51.60
2018-07-09T05:54:13.943Z,51.10
2018-07-09T05:56:43.070Z,50.50
2018-07-09T05:59:12.067Z,50.30
2018-07-09T06:01:41.363Z,50.90
2018-07-09T06:04:10.476Z,51.00
2018-07-09T06:06:39.092Z,50.40
2018-07-09T06:09:09.314Z,50.10
2018-07-09T06:11:38.009Z,50.20
2018-07-09T06:14:06.890Z,49.90
2018-07-09T06:16:36.478Z,49.90
2018-07-09T06:19:05.556Z,49.80
2018-07-09T06:21:34.310Z,49.60
2018-07-09T06:24:02.947Z,49.90
2018-07-09T06:26:31.914Z,49.70
2018-07-09T06:29:01.212Z,49.50
2018-07-09T06:31:31.119Z,49.40
2018-07-09T06:34:00.389Z,48.90
2018-07-09T06:37:58.461Z,48.60
2018-07-09T06:40:27.527Z,48.40
2018-07-09T06:42:56.157Z,48.90
2018-07-09T06:45:24.824Z,48.10
2018-07-09T06:47:53.515Z,47.60
2018-07-09T06:50:22.333Z,47.50
2018-07-09T06:52:51.500Z,47.20
2018-07-09T06:55:20.263Z,47.20
2018-07-09T06:57:48.982Z,46.20
2018-07-09T07:00:17.668Z,45.80
2018-07-09T07:02:46.260Z,45.70
2018-07-09T07:05:15.156Z,45.50
2018-07-09T07:07:43.917Z,45.10
2018-07-09T07:10:12.879Z,44.60
2018-07-09T07:12:42.193Z,44.10
2018-07-09T07:15:11.011Z,44.00
2018-07-09T07:17:45.351Z,43.50
2018-07-09T07:22:43.191Z,43.10
2018-07-09T07:25:12.037Z,42.90
2018-07-09T07:27:41.304Z,43.60
2018-07-09T07:30:10.006Z,42.90
2018-07-09T07:32:38.733Z,43.10
2018-07-09T07:35:07.546Z,42.80
2018-07-09T07:37:37.255Z,42.40
2018-07-09T07:40:06.119Z,42.40
2018-07-09T07:42:35.668Z,42.40
2018-07-09T07:45:04.767Z,42.70
2018-07-09T07:47:33.411Z,42.20
2018-07-09T07:50:02.640Z,42.30
2018-07-09T07:52:31.432Z,41.60
2018-07-09T07:55:00.291Z,41.70
2018-07-09T07:59:59.787Z,41.40
2018-07-09T08:02:28.453Z,41.30
2018-07-09T08:04:57.533Z,41.50
2018-07-09T08:07:27.311Z,41.90
2018-07-09T08:09:56.304Z,41.70
2018-07-09T08:14:54.734Z,41.90
2018-07-09T08:17:25.023Z,42.30
2018-07-09T08:19:53.756Z,42.00
2018-07-09T08:22:22.584Z,41.70
2018-07-09T08:27:20.683Z,41.80
2018-07-09T08:29:49.743Z,42.00
2018-07-09T08:32:18.684Z,42.20
2018-07-09T08:34:49.311Z,42.20
2018-07-09T08:37:18.648Z,42.30
2018-07-09T08:39:48.430Z,42.20
2018-07-09T08:42:17.265Z,42.30
2018-07-09T08:44:46.243Z,42.10
2018-07-09T08:47:15.453Z,42.90
2018-07-09T08:49:46.075Z,42.20
2018-07-09T08:52:16.620Z,42.10
2018-07-09T08:54:46.171Z,42.10
2018-07-09T08:57:15.677Z,42.40
2018-07-09T08:59:45.020Z,42.50
2018-07-09T09:02:14.332Z,42.60
2018-07-09T09:04:43.264Z,42.60
2018-07-09T09:07:12.472Z,42.50
2018-07-09T09:12:12.157Z,42.30
2018-07-09T09:14:41.225Z,42.40
2018-07-09T09:17:10.596Z,43.00
2018-07-09T09:19:39.280Z,42.90
2018-07-09T09:22:08.896Z,42.50
2018-07-09T09:24:37.830Z,42.80
2018-07-09T09:27:07.646Z,42.70
2018-07-09T09:29:36.423Z,43.10
2018-07-09T09:32:05.379Z,42.80
2018-07-09T09:34:35.652Z,42.80
2018-07-09T09:37:06.076Z,42.50
2018-07-09T09:39:37.201Z,42.80
2018-07-09T09:42:06.925Z,43.10
2018-07-09T09:44:36.164Z,42.60
2018-07-09T09:47:04.881Z,43.00
2018-07-09T09:49:34.220Z,43.00
2018-07-09T09:52:04.965Z,42.70
2018-07-09T09:54:33.684Z,43.50
2018-07-09T09:57:02.551Z,43.50
2018-07-09T09:59:32.542Z,43.40
2018-07-09T10:02:01.270Z,43.40
2018-07-09T10:04:30.214Z,43.30
2018-07-09T10:06:59.275Z,43.40
2018-07-09T10:09:29.394Z,43.40
2018-07-09T10:11:58.842Z,43.30
2018-07-09T10:14:28.684Z,42.90
2018-07-09T10:16:57.919Z,43.40
2018-07-09T10:19:27.748Z,43.70
2018-07-09T10:21:56.957Z,43.60
2018-07-09T10:24:26.039Z,43.50
2018-07-09T10:26:54.742Z,42.70
2018-07-09T10:29:24.177Z,42.70
2018-07-09T10:31:52.803Z,42.80
2018-07-09T10:34:21.984Z,43.30
2018-07-09T10:36:50.571Z,43.30
2018-07-09T10:39:19.336Z,43.60
2018-07-09T10:41:48.659Z,43.30
2018-07-09T10:44:17.786Z,43.20
2018-07-09T10:46:47.904Z,43.40
2018-07-09T10:49:18.064Z,42.90
2018-07-09T10:51:46.695Z,43.40
2018-07-09T10:54:17.176Z,42.50
2018-07-09T10:56:45.927Z,43.20
2018-07-09T10:59:15.329Z,43.40
2018-07-09T11:01:44.143Z,42.80
2018-07-09T11:04:12.776Z,42.90
2018-07-09T11:06:41.598Z,42.60
2018-07-09T11:09:10.709Z,43.00
2018-07-09T11:11:39.730Z,42.60
2018-07-09T11:14:08.800Z,42.50
2018-07-09T11:16:37.981Z,42.60
2018-07-09T11:19:06.819Z,42.50
2018-07-09T11:21:35.627Z,42.60
2018-07-09T11:24:04.808Z,42.60
2018-07-09T11:26:33.540Z,42.70
2018-07-09T11:29:02.740Z,43.10
2018-07-09T11:31:32.104Z,43.00
2018-07-09T11:34:01.123Z,43.00
2018-07-09T11:36:30.254Z,43.10
2018-07-09T11:38:59.846Z,43.10
2018-07-09T11:41:28.991Z,43.40
2018-07-09T11:43:57.595Z,43.30
2018-07-09T11:46:26.250Z,43.60
2018-07-09T11:48:57.297Z,43.80
2018-07-09T11:51:26.749Z,43.30
2018-07-09T11:53:55.517Z,43.80
2018-07-09T11:56:24.671Z,44.10
2018-07-09T11:58:54.298Z,44.00
2018-07-09T12:01:23.678Z,44.00
2018-07-09T12:03:53.988Z,43.40
2018-07-09T12:06:23.047Z,44.20
2018-07-09T12:08:52.240Z,43.60
2018-07-09T12:11:21.645Z,42.70
2018-07-09T12:13:51.538Z,42.10
2018-07-09T12:16:20.138Z,42.60
2018-07-09T12:18:48.725Z,42.60
2018-07-09T12:21:18.396Z,43.10
2018-07-09T12:23:47.269Z,42.70
2018-07-09T12:26:16.788Z,41.90
2018-07-09T12:28:45.408Z,42.30
2018-07-09T12:31:14.592Z,42.20
2018-07-09T12:33:43.385Z,42.80
2018-07-09T12:36:12.795Z,42.70
2018-07-09T12:41:10.356Z,42.90
2018-07-09T12:43:39.414Z,43.00
2018-07-09T12:46:08.845Z,43.00
2018-07-09T12:48:38.264Z,43.60
2018-07-09T12:51:06.890Z,42.50
2018-07-09T12:53:35.542Z,43.00
2018-07-09T12:56:04.379Z,42.50
2018-07-09T12:58:33.121Z,43.30
2018-07-09T13:03:31.768Z,43.50
2018-07-09T13:06:00.712Z,43.30
2018-07-09T13:08:29.436Z,43.60
2018-07-09T13:10:58.173Z,42.80
2018-07-09T13:13:27.039Z,42.90
2018-07-09T13:15:56.090Z,42.40
2018-07-09T13:18:25.380Z,42.20
2018-07-09T13:20:54.696Z,42.30
2018-07-09T13:23:24.122Z,42.70
2018-07-09T13:25:53.981Z,41.20
2018-07-09T13:28:22.693Z,41.80
2018-07-09T13:30:51.441Z,41.90
2018-07-09T13:33:20.366Z,41.10
2018-07-09T13:35:49.093Z,40.30
2018-07-09T13:38:17.745Z,41.20
2018-07-09T13:40:46.479Z,42.30
2018-07-09T13:43:15.404Z,41.70
2018-07-09T13:45:44.248Z,41.90
2018-07-09T13:48:13.072Z,40.90
2018-07-09T13:50:42.151Z,40.30
2018-07-09T13:53:11.838Z,41.40
2018-07-09T13:55:41.058Z,40.80
2018-07-09T13:58:09.711Z,40.30
2018-07-09T14:00:38.285Z,40.80
2018-07-09T14:03:07.501Z,40.00
2018-07-09T14:05:36.894Z,40.80
2018-07-09T14:08:05.828Z,39.90
2018-07-09T14:10:36.115Z,39.10
2018-07-09T14:13:04.904Z,38.80
2018-07-09T14:15:34.271Z,38.90
2018-07-09T14:18:03.629Z,38.20
2018-07-09T14:20:33.491Z,38.20
2018-07-09T14:23:03.288Z,39.50
2018-07-09T14:25:32.080Z,39.00
2018-07-09T14:28:01.133Z,39.10
2018-07-09T14:30:30.326Z,40.10
2018-07-09T14:32:59.276Z,40.80
2018-07-09T14:35:28.750Z,40.00
2018-07-09T14:37:58.024Z,39.60
2018-07-09T14:40:28.233Z,39.10
2018-07-09T14:42:57.321Z,39.90
2018-07-09T14:45:26.555Z,39.00
2018-07-09T14:47:55.546Z,39.70
2018-07-09T14:50:25.011Z,38.60
2018-07-09T14:52:54.708Z,39.70
2018-07-09T14:55:24.011Z,39.90
2018-07-09T14:57:52.876Z,40.10
2018-07-09T15:00:22.742Z,40.00
2018-07-09T15:02:51.464Z,40.60
2018-07-09T15:05:21.015Z,39.10
2018-07-09T15:07:50.989Z,39.90
2018-07-09T15:10:20.127Z,39.10
2018-07-09T15:12:48.951Z,37.90
2018-07-09T15:15:17.905Z,37.50
2018-07-09T15:20:15.936Z,38.80
2018-07-09T15:22:44.635Z,39.10
2018-07-09T15:25:13.323Z,38.20
2018-07-09T15:27:41.942Z,38.30
2018-07-09T15:30:11.277Z,39.40
2018-07-09T15:32:40.274Z,39.90
2018-07-09T15:35:09.369Z,37.10
2018-07-09T15:37:38.067Z,38.00
2018-07-09T15:40:06.831Z,39.60
2018-07-09T15:42:36.003Z,39.10
2018-07-09T15:45:05.073Z,39.00
2018-07-09T15:47:33.764Z,38.70
2018-07-09T15:50:02.825Z,38.20
2018-07-09T15:52:31.679Z,37.70
2018-07-09T15:55:00.690Z,38.70
2018-07-09T15:57:29.535Z,38.70
2018-07-09T15:59:58.825Z,39.40
2018-07-09T16:02:27.754Z,39.10
2018-07-09T16:04:57.314Z,39.70
2018-07-09T16:07:25.908Z,39.00
2018-07-09T16:09:54.635Z,40.40
2018-07-09T16:12:23.343Z,39.40
2018-07-09T16:14:52.213Z,38.40
2018-07-09T16:17:21.685Z,37.90
2018-07-09T16:19:50.305Z,38.00
2018-07-09T16:22:19.218Z,38.00
2018-07-09T16:24:48.391Z,39.40
2018-07-09T16:27:17.184Z,38.40
2018-07-09T16:29:46.506Z,40.00
2018-07-09T16:32:15.818Z,39.00
2018-07-09T16:34:44.366Z,39.30
2018-07-09T16:37:13.516Z,38.00
2018-07-09T16:39:42.914Z,39.60
2018-07-09T16:42:11.593Z,39.90
2018-07-09T16:44:40.751Z,39.70
2018-07-09T16:47:09.561Z,39.40
2018-07-09T16:49:38.813Z,40.60
2018-07-09T16:52:07.770Z,39.90
2018-07-09T16:54:36.939Z,40.00
2018-07-09T16:57:05.804Z,39.90
2018-07-09T16:59:34.879Z,38.80
2018-07-09T17:02:04.449Z,38.80
2018-07-09T17:04:33.095Z,39.00
2018-07-09T17:07:01.815Z,39.50
2018-07-09T17:09:30.556Z,40.90
2018-07-09T17:11:59.196Z,39.90
2018-07-09T17:14:27.779Z,40.00
2018-07-09T17:16:56.886Z,39.00
2018-07-09T17:19:26.192Z,39.40
2018-07-09T17:21:55.075Z,39.20
2018-07-09T17:24:24.362Z,40.00
2018-07-09T17:26:53.513Z,39.00
2018-07-09T17:29:22.983Z,38.50
2018-07-09T17:31:51.791Z,38.40
2018-07-09T17:34:20.418Z,39.20
2018-07-09T17:36:49.152Z,38.90
2018-07-09T17:39:18.120Z,39.50
2018-07-09T17:41:47.629Z,39.60
2018-07-09T17:44:17.896Z,39.60
2018-07-09T17:46:46.821Z,39.00
2018-07-09T17:49:15.964Z,39.20
2018-07-09T17:51:44.930Z,39.50
2018-07-09T17:54:14.026Z,38.70
2018-07-09T17:56:42.992Z,39.20
2018-07-09T17:59:12.128Z,40.00
2018-07-09T18:01:40.938Z,39.20
2018-07-09T18:04:10.313Z,39.30
2018-07-09T18:06:39.211Z,40.00
2018-07-09T18:09:07.944Z,40.10
2018-07-09T18:11:36.639Z,40.50
2018-07-09T18:14:05.406Z,41.30
2018-07-09T18:16:33.835Z,40.80
2018-07-09T18:19:03.164Z,40.90
2018-07-09T18:21:32.348Z,39.70
2018-07-09T18:24:01.016Z,39.00
2018-07-09T18:26:31.111Z,39.60
2018-07-09T18:28:59.852Z,38.80
2018-07-09T18:31:29.440Z,39.40
2018-07-09T18:33:59.900Z,37.90
2018-07-09T18:36:28.672Z,38.00
2018-07-09T18:38:58.368Z,38.30
2018-07-09T18:41:27.911Z,37.70
2018-07-09T18:43:58.272Z,38.70
2018-07-09T18:46:27.104Z,39.20
2018-07-09T18:48:56.663Z,38.30
2018-07-09T18:51:25.607Z,39.40
2018-07-09T18:53:54.606Z,38.40
2018-07-09T18:56:23.432Z,40.00
2018-07-09T18:58:52.486Z,40.30
2018-07-09T19:01:22.073Z,38.90
2018-07-09T19:03:50.937Z,41.40
2018-07-09T19:06:30.830Z,40.30
2018-07-09T19:09:00.752Z,41.50
2018-07-09T19:11:29.334Z,42.20
2018-07-09T19:13:59.388Z,41.60
2018-07-09T19:16:28.254Z,42.40
2018-07-09T19:19:08.166Z,40.60
2018-07-09T19:21:48.535Z,40.30
2018-07-09T19:24:16.000Z,40.80
2018-07-09T19:26:43.856Z,39.50
2018-07-09T19:29:11.986Z,40.50
2018-07-09T19:31:39.391Z,40.80
2018-07-09T19:34:06.870Z,40.90
2018-07-09T19:36:34.723Z,42.00
2018-07-09T19:39:02.107Z,41.00
2018-07-09T19:41:29.555Z,42.20
2018-07-09T19:43:57.705Z,40.70
2018-07-09T19:46:25.087Z,40.40
2018-07-09T19:48:52.497Z,40.70
2018-07-09T19:51:19.936Z,41.70
2018-07-09T19:53:47.445Z,40.10
2018-07-09T19:56:15.078Z,40.70
2018-07-09T19:58:42.954Z,41.20
2018-07-09T20:01:10.473Z,42.10
2018-07-09T20:03:38.070Z,41.40
2018-07-09T20:06:06.251Z,42.20
2018-07-09T20:08:39.375Z,43.00
2018-07-09T20:11:12.136Z,43.80
2018-07-09T20:14:10.901Z,44.30
2018-07-09T20:16:43.504Z,44.60
2018-07-09T20:19:11.077Z,45.00
2018-07-09T20:21:38.469Z,45.10
2018-07-09T20:24:06.113Z,44.60
2018-07-09T20:26:33.499Z,45.20
2018-07-09T20:29:00.884Z,44.40
2018-07-09T20:31:28.304Z,43.40
2018-07-09T20:33:55.712Z,44.10
2018-07-09T20:36:23.104Z,44.20
2018-07-09T20:38:50.959Z,44.30
2018-07-09T20:43:46.041Z,44.50
2018-07-09T20:46:13.516Z,44.40
2018-07-09T20:48:41.012Z,44.80
2018-07-09T20:51:08.456Z,44.50
2018-07-09T20:53:35.892Z,44.50
2018-07-09T20:56:03.339Z,44.60
2018-07-09T20:58:30.785Z,44.80
2018-07-09T21:00:58.307Z,44.60
2018-07-09T21:03:25.688Z,44.70
2018-07-09T21:05:53.058Z,45.00
2018-07-09T21:08:20.561Z,44.80
2018-07-09T21:10:48.416Z,44.80
2018-07-09T21:13:15.920Z,44.80
2018-07-09T21:15:43.793Z,44.80
2018-07-09T21:18:11.181Z,45.30
2018-07-09T21:20:38.548Z,45.70
2018-07-09T21:23:06.116Z,46.00
2018-07-09T21:28:01.665Z,46.10
2018-07-09T21:30:29.041Z,45.80
2018-07-09T21:32:56.658Z,45.70
2018-07-09T21:35:24.012Z,45.70
2018-07-09T21:40:19.521Z,45.90
2018-07-09T21:42:46.933Z,46.00
2018-07-09T21:45:14.685Z,46.00
2018-07-09T21:47:42.155Z,46.30
2018-07-09T21:50:09.705Z,46.60
2018-07-09T21:52:37.163Z,46.80
2018-07-09T21:55:04.569Z,46.50
2018-07-09T21:59:59.880Z,46.50
2018-07-09T22:02:27.310Z,47.20
2018-07-09T22:04:54.868Z,46.70
2018-07-09T22:07:22.256Z,47.10
2018-07-09T22:09:49.623Z,47.30
2018-07-09T22:12:17.723Z,47.60
2018-07-09T22:14:45.413Z,47.60
2018-07-09T22:17:12.837Z,47.50
2018-07-09T22:19:40.273Z,47.60
2018-07-09T22:22:07.655Z,47.70
2018-07-09T22:24:35.259Z,47.80
2018-07-09T22:27:02.852Z,47.80
2018-07-09T22:29:30.279Z,47.80
2018-07-09T22:31:59.427Z,47.90
2018-07-09T22:34:28.120Z,48.00
2018-07-09T22:36:56.961Z,48.10
2018-07-09T22:39:25.960Z,48.20
2018-07-09T22:41:54.613Z,48.50
2018-07-09T22:44:23.364Z,48.70
2018-07-09T22:46:52.100Z,48.90
2018-07-09T22:49:21.238Z,49.10
2018-07-09T22:51:49.801Z,49.10
2018-07-09T22:54:18.980Z,49.00
2018-07-09T22:56:47.527Z,49.00
2018-07-09T22:59:16.933Z,49.40
2018-07-09T23:01:45.574Z,49.60
2018-07-09T23:04:14.353Z,49.70
2018-07-09T23:06:43.132Z,49.80
2018-07-09T23:10:22.272Z,50.10
2018-07-09T23:15:33.454Z,49.90
2018-07-09T23:18:13.164Z,50.00
2018-07-09T23:21:54.378Z,50.40
2018-07-09T23:24:21.757Z,50.10
2018-07-09T23:26:49.207Z,50.00
2018-07-09T23:29:17.062Z,50.40
2018-07-09T23:31:44.883Z,50.50
2018-07-09T23:34:12.321Z,50.00
2018-07-09T23:36:39.678Z,49.50
2018-07-09T23:39:08.203Z,49.10
2018-07-09T23:44:04.120Z,48.50
2018-07-09T23:46:32.145Z,48.80
2018-07-09T23:48:59.648Z,49.50
2018-07-09T23:51:27.028Z,50.30
2018-07-09T23:53:54.707Z,50.60
2018-07-09T23:59:46.311Z,50.70
